Time;durP1;ratioP1;P1;durP2;ratioP2;P2;SDS_P1;SDS_P2;PMS_P1;PMS_P2;Temp;Humidity;BMP_temperature;BMP_pressure;BME280_temperature;BME280_humidity;BME280_pressure;Samples;Min_cycle;Max_cycle;Signal;HPM_P1;HPM_P2
2022/10/06 00:01:47;;;;;;;7.80;7.00;;;;;;;7.84;89.17;99908.83;431047;1272;141476;-64
2022/10/06 00:11:53;;;;;;;8.70;6.60;;;;;;;7.84;89.80;99906.88;431157;1273;142335;-64
2022/10/06 00:21:59;;;;;;;9.90;6.20;;;;;;;7.90;90.16;99904.53;430334;1273;142646;-62
2022/10/06 00:32:05;;;;;;;7.80;5.60;;;;;;;7.96;90.45;99903.35;431274;1273;141529;-65
2022/10/06 00:42:24;;;;;;;7.70;5.70;;;;;;;8.00;90.82;99903.66;430181;1273;141176;-63
2022/10/06 00:52:32;;;;;;;7.50;6.20;;;;;;;8.04;91.20;99893.54;430529;1273;142232;-65
2022/10/06 01:02:39;;;;;;;;;;;;;;;8.13;91.54;99889.50;430525;1273;142480;-63
2022/10/06 01:12:45;;;;;;;5.50;4.70;;;;;;;8.17;91.54;99885.46;430964;1273;128807;-65
2022/10/06 01:22:56;;;;;;;5.50;4.80;;;;;;;8.27;91.83;99879.34;430029;1272;141297;-64
2022/10/06 01:33:02;;;;;;;5.60;4.90;;;;;;;8.41;92.07;99879.02;432025;1273;142110;-64
2022/10/06 01:43:08;;;;;;;6.60;4.20;;;;;;;8.60;92.20;99880.55;430508;1273;142488;-66
2022/10/06 01:53:14;;;;;;;6.20;4.30;;;;;;;8.68;91.77;99873.85;429549;1273;141706;-64
2022/10/06 02:03:20;;;;;;;6.60;4.00;;;;;;;8.73;91.74;99879.73;430296;1273;141628;-65
2022/10/06 02:13:28;;;;;;;6.30;4.30;;;;;;;8.72;91.58;99889.53;431152;1273;142493;-63
2022/10/06 02:23:34;;;;;;;5.80;4.50;;;;;;;8.74;91.67;99889.79;429510;1273;141899;-64
2022/10/06 02:33:41;;;;;;;4.50;3.20;;;;;;;8.73;91.59;99900.33;429923;1273;142455;-64
2022/10/06 02:43:47;;;;;;;5.70;4.00;;;;;;;8.74;91.78;99905.15;429821;1273;142094;-63
2022/10/06 02:53:53;;;;;;;6.50;4.30;;;;;;;8.75;91.81;99907.03;429429;1273;141864;-63
2022/10/06 03:03:59;;;;;;;11.70;4.40;;;;;;;8.70;91.90;99913.91;431211;1273;141883;-63
2022/10/06 03:14:05;;;;;;;6.00;4.60;;;;;;;8.71;92.14;99923.96;430488;1273;143296;-64
2022/10/06 03:24:12;;;;;;;5.10;4.60;;;;;;;8.68;92.13;99926.54;430138;1274;183852;-64
2022/10/06 03:34:18;;;;;;;5.10;4.70;;;;;;;8.66;92.45;99929.08;430257;1273;141088;-62
2022/10/06 03:44:23;;;;;;;5.80;4.20;;;;;;;8.65;92.47;99941.70;430701;1273;141785;-64
2022/10/06 03:54:29;;;;;;;6.10;4.50;;;;;;;8.62;92.63;99944.14;430106;1273;142039;-64
2022/10/06 04:04:35;;;;;;;4.80;3.90;;;;;;;8.64;93.10;99946.28;430108;1273;141408;-66
2022/10/06 04:14:41;;;;;;;6.40;4.80;;;;;;;8.62;93.03;99965.25;429331;1274;141797;-64
2022/10/06 04:24:47;;;;;;;9.60;4.70;;;;;;;8.60;93.21;99972.84;430042;1274;142979;-65
2022/10/06 04:34:53;;;;;;;6.10;4.70;;;;;;;8.54;93.13;99979.25;430046;1273;141209;-63
2022/10/06 04:44:59;;;;;;;8.30;4.60;;;;;;;8.46;93.27;99987.66;444731;1273;141718;-63
2022/10/06 04:55:06;;;;;;;4.20;3.80;;;;;;;8.44;93.59;99999.98;446960;1273;141934;-64
2022/10/06 05:05:12;;;;;;;5.30;4.50;;;;;;;8.48;93.51;100005.55;437981;1273;142736;-65
2022/10/06 05:15:18;;;;;;;5.90;5.20;;;;;;;8.52;93.82;100008.84;430427;1273;142673;-66
2022/10/06 05:25:24;;;;;;;4.80;4.40;;;;;;;8.66;93.81;100019.51;430568;1273;142760;-64
2022/10/06 05:35:29;;;;;;;5.80;4.50;;;;;;;9.01;93.98;100031.21;437572;1273;142069;-65
2022/10/06 05:45:35;;;;;;;4.80;4.30;;;;;;;10.10;94.48;100046.65;442798;1272;144237;-63
2022/10/06 05:55:42;;;;;;;4.90;4.20;;;;;;;11.40;91.11;100060.89;444098;1273;142538;-65
2022/10/06 06:05:48;;;;;;;5.70;4.60;;;;;;;11.46;89.87;100084.23;433074;1273;142741;-63
2022/10/06 06:16:03;;;;;;;6.30;4.10;;;;;;;11.51;89.56;100095.02;441606;1273;142233;-64
2022/10/06 06:26:12;;;;;;;5.20;4.00;;;;;;;11.63;89.37;100111.61;443793;1273;142958;-65
2022/10/06 06:36:20;;;;;;;7.50;4.90;;;;;;;11.74;89.06;100127.12;444517;1273;143094;-62
2022/10/06 06:46:25;;;;;;;;;;;;;;;11.86;89.01;100148.52;446583;1274;144622;-62
2022/10/06 06:56:33;;;;;;;6.70;4.70;;;;;;;12.05;88.83;100161.73;446294;1274;131084;-61
2022/10/06 07:06:41;;;;;;;5.40;3.60;;;;;;;12.41;88.49;100167.30;446401;1275;143119;-63
2022/10/06 07:27:10;;;;;;;4.90;4.10;;;;;;;13.76;87.44;100183.44;446610;1275;143369;-62
2022/10/06 07:37:17;;;;;;;4.10;3.60;;;;;;;14.30;85.72;100184.08;445242;1274;153787;-60
2022/10/06 07:47:23;;;;;;;4.60;3.50;;;;;;;15.40;85.36;100188.65;446242;1273;142842;-62
2022/10/06 07:57:34;;;;;;;6.90;3.40;;;;;;;20.39;79.79;100190.91;444676;1272;142336;-61
2022/10/06 08:07:40;;;;;;;3.40;3.10;;;;;;;20.82;74.57;100203.22;447072;1273;144234;-62
2022/10/06 08:17:46;;;;;;;3.10;2.60;;;;;;;25.13;70.34;100208.00;446327;1273;143138;-61
2022/10/06 08:27:51;;;;;;;4.20;2.30;;;;;;;31.72;60.71;100208.84;447057;1273;142667;-62
2022/10/06 08:37:58;;;;;;;3.60;2.20;;;;;;;35.43;51.12;100216.54;444800;1274;142277;-61
2022/10/06 08:48:09;;;;;;;4.60;1.80;;;;;;;36.55;46.08;100223.91;440876;1273;142142;-62
2022/10/06 08:58:34;;;;;;;5.80;2.40;;;;;;;36.86;42.70;100230.76;446918;1273;143459;-62
2022/10/06 09:08:49;;;;;;;5.30;1.90;;;;;;;31.81;42.54;100242.14;446330;1273;142142;-62
2022/10/06 09:19:01;;;;;;;2.70;2.10;;;;;;;28.30;44.71;100256.44;446456;1275;142188;-63
2022/10/06 09:29:17;;;;;;;4.80;1.90;;;;;;;24.91;47.04;100271.28;445658;1275;147034;-62
2022/10/06 09:39:25;;;;;;;2.10;1.80;;;;;;;22.57;50.07;100289.41;443907;1273;143602;-62
2022/10/06 09:49:31;;;;;;;2.00;1.80;;;;;;;21.04;52.72;100313.08;447011;1273;143197;-63
2022/10/06 09:59:42;;;;;;;3.00;2.50;;;;;;;20.00;54.92;100328.20;446311;1272;144151;-62
2022/10/06 10:09:48;;;;;;;3.30;2.70;;;;;;;19.11;56.91;100343.22;447109;1273;142366;-63
2022/10/06 10:19:55;;;;;;;4.00;2.90;;;;;;;18.37;58.82;100358.52;447113;1273;142654;-63
2022/10/06 10:30:08;;;;;;;4.60;2.90;;;;;;;18.46;60.09;100358.67;446333;1273;145617;-63
2022/10/06 10:40:32;;;;;;;5.40;3.50;;;;;;;18.86;60.03;100370.52;440349;1274;143254;-64
2022/10/06 10:50:49;;;;;;;6.70;3.30;;;;;;;19.17;60.07;100369.45;446017;1272;142673;-62
2022/10/06 11:01:01;;;;;;;3.60;3.10;;;;;;;19.27;60.11;100378.59;446611;1275;142163;-63
2022/10/06 11:11:15;;;;;;;5.50;3.20;;;;;;;19.20;60.54;100373.70;446902;1274;143327;-61
2022/10/06 11:21:27;;;;;;;3.30;2.90;;;;;;;19.03;60.90;100383.98;446918;1274;142566;-63
2022/10/06 11:31:41;;;;;;;7.10;3.70;;;;;;;19.31;61.02;100397.40;446455;1275;141971;-63
2022/10/06 11:41:52;;;;;;;6.80;3.30;;;;;;;19.63;60.88;100400.25;439215;1274;198617;-63
2022/10/06 11:52:18;;;;;;;6.60;3.20;;;;;;;20.16;60.19;100406.38;429487;1274;142715;-62
2022/10/06 12:02:40;;;;;;;3.80;2.60;;;;;;;20.15;59.57;100423.39;444799;1274;143228;-62
2022/10/06 12:12:55;;;;;;;3.60;2.20;;;;;;;19.77;59.57;100419.77;446835;1274;143060;-63
2022/10/06 12:23:23;;;;;;;2.40;2.20;;;;;;;19.62;59.42;100429.48;445605;1275;151893;-63
2022/10/06 12:33:39;;;;;;;4.40;2.10;;;;;;;19.82;59.16;100441.77;446662;1274;141874;-63
2022/10/06 12:43:59;;;;;;;9.00;2.00;;;;;;;19.90;57.07;100463.05;437868;1272;142074;-62
2022/10/06 12:54:16;;;;;;;3.80;1.50;;;;;;;19.68;56.55;100472.66;445617;1275;142050;-63
2022/10/06 13:04:41;;;;;;;2.40;1.70;;;;;;;19.37;56.35;100483.30;446471;1274;142462;-62
2022/10/06 13:14:47;;;;;;;1.90;1.40;;;;;;;19.41;56.24;100488.43;446159;1272;142391;-64
2022/10/06 13:25:01;;;;;;;2.20;1.00;;;;;;;19.28;56.05;100500.79;446583;1275;142153;-62
2022/10/06 13:35:11;;;;;;;4.20;1.30;;;;;;;19.13;55.55;100505.41;446949;1274;141968;-63
2022/10/06 13:45:17;;;;;;;3.20;1.30;;;;;;;18.85;55.84;100522.66;436568;1274;141046;-63
2022/10/06 13:55:25;;;;;;;2.80;1.40;;;;;;;18.73;56.21;100516.59;446919;1274;141493;-64
2022/10/06 14:05:35;;;;;;;1.60;1.50;;;;;;;18.88;56.30;100515.82;446139;1274;143538;-62
2022/10/06 14:15:49;;;;;;;9.00;2.50;;;;;;;18.80;56.08;100523.81;446903;1274;142376;-62
2022/10/06 14:25:55;;;;;;;2.60;2.30;;;;;;;18.54;56.09;100536.02;446646;1275;141896;-62
2022/10/06 14:36:01;;;;;;;3.40;2.10;;;;;;;18.24;56.22;100549.94;445906;1275;142586;-62
2022/10/06 14:46:13;;;;;;;5.40;1.80;;;;;;;17.88;56.29;100555.09;433187;1273;142903;-62
2022/10/06 14:56:18;;;;;;;5.80;1.60;;;;;;;17.48;56.56;100565.48;446274;1272;141542;-63
2022/10/06 15:16:47;;;;;;;2.20;1.20;;;;;;;16.50;58.02;100578.04;446922;1272;142561;-62
2022/10/06 15:37:17;;;;;;;2.90;1.30;;;;;;;15.69;60.14;100610.35;443937;1272;141531;-63
2022/10/06 15:47:23;;;;;;;4.10;1.90;;;;;;;15.32;61.08;100619.60;444031;1272;142485;-62
2022/10/06 15:57:30;;;;;;;2.90;1.70;;;;;;;14.91;62.03;100640.98;446694;1275;142192;-62
2022/10/06 16:07:36;;;;;;;3.00;1.20;;;;;;;14.46;62.99;100655.98;447056;1271;144621;-61
2022/10/06 16:17:41;;;;;;;4.60;2.00;;;;;;;13.97;63.78;100665.17;446328;1273;143261;-62
2022/10/06 16:27:47;;;;;;;4.90;2.30;;;;;;;13.49;64.99;100674.89;447074;1273;201285;-62
2022/10/06 16:37:53;;;;;;;4.60;3.00;;;;;;;12.99;66.04;100694.41;446702;1275;142621;-62
2022/10/06 16:47:59;;;;;;;9.00;4.10;;;;;;;12.57;66.95;100700.77;432593;1273;142833;-61
2022/10/06 16:58:05;;;;;;;8.10;3.90;;;;;;;12.15;67.86;100731.04;429784;1276;143544;-62
2022/10/06 17:08:10;;;;;;;10.20;9.00;;;;;;;11.71;69.01;100746.10;444254;1275;143529;-62
2022/10/06 17:18:16;;;;;;;46.60;42.00;;;;;;;11.34;69.91;100756.11;447139;1273;143272;-62
2022/10/06 17:28:23;;;;;;;26.70;23.80;;;;;;;11.03;70.90;100767.91;447089;1270;144163;-63
2022/10/06 17:38:30;;;;;;;13.50;10.60;;;;;;;10.77;71.92;100775.77;446303;1272;147352;-62
2022/10/06 17:48:36;;;;;;;8.50;7.60;;;;;;;10.51;72.58;100777.98;432177;1273;143120;-61
2022/10/06 17:58:44;;;;;;;8.70;6.00;;;;;;;10.25;73.29;100782.94;430009;1273;142309;-64
2022/10/06 18:08:51;;;;;;;9.70;6.10;;;;;;;9.98;74.14;100792.14;446250;1272;142623;-62
2022/10/06 18:19:00;;;;;;;11.80;7.60;;;;;;;9.71;74.67;100807.23;446778;1275;143695;-62
2022/10/06 18:29:06;;;;;;;12.70;10.30;;;;;;;9.37;74.87;100816.10;447023;1273;146025;-62
2022/10/06 18:39:13;;;;;;;18.00;13.10;;;;;;;9.04;75.41;100827.98;447077;1273;144225;-62
2022/10/06 18:49:21;;;;;;;16.30;13.20;;;;;;;8.76;75.87;100842.12;430887;1271;142193;-61
2022/10/06 18:59:30;;;;;;;35.00;23.50;;;;;;;8.47;76.18;100853.77;446296;1272;143877;-61
2022/10/06 19:09:35;;;;;;;30.70;21.80;;;;;;;8.23;76.57;100861.39;447039;1273;143177;-63
2022/10/06 19:19:42;;;;;;;23.70;20.00;;;;;;;8.03;77.15;100863.27;447029;1271;142790;-62
2022/10/06 19:29:52;;;;;;;30.60;21.90;;;;;;;7.83;77.56;100877.35;446283;1273;143988;-62
2022/10/06 19:39:59;;;;;;;31.80;22.30;;;;;;;7.62;78.04;100882.17;446850;1274;143345;-62
2022/10/06 19:50:06;;;;;;;26.80;21.60;;;;;;;7.41;78.28;100886.48;432517;1274;144241;-63
2022/10/06 20:00:17;;;;;;;28.70;23.70;;;;;;;7.19;78.42;100887.81;446548;1275;142599;-62
2022/10/06 20:10:23;;;;;;;31.00;23.90;;;;;;;6.97;78.60;100900.60;446798;1274;143101;-62
2022/10/06 20:20:29;;;;;;;32.50;23.00;;;;;;;6.80;78.95;100911.53;445922;1275;142859;-62
2022/10/06 20:30:38;;;;;;;30.00;21.40;;;;;;;6.66;79.53;100920.95;446816;1274;146180;-62
2022/10/06 20:40:48;;;;;;;32.20;22.80;;;;;;;6.54;80.14;100918.46;446725;1275;142952;-63
2022/10/06 20:50:53;;;;;;;43.30;24.40;;;;;;;6.37;80.44;100921.48;437134;1274;179042;-62
2022/10/06 21:01:06;;;;;;;44.10;24.70;;;;;;;6.20;80.77;100927.66;446687;1275;143929;-63
2022/10/06 21:11:13;;;;;;;26.70;19.50;;;;;;;6.11;81.63;100933.08;445995;1274;154443;-62
2022/10/06 21:21:19;;;;;;;30.20;19.90;;;;;;;6.08;82.24;100934.02;446798;1274;143234;-62
2022/10/06 21:31:27;;;;;;;23.00;17.10;;;;;;;5.86;81.91;100936.23;446836;1274;142469;-62
2022/10/06 21:41:35;;;;;;;;;;;;;;;5.69;81.77;100939.40;446056;1274;142479;-62
2022/10/06 21:51:42;;;;;;;36.50;19.70;;;;;;;5.58;82.07;100942.59;437426;1275;129233;-62
2022/10/06 22:01:49;;;;;;;28.50;22.40;;;;;;;5.41;82.28;100949.72;446640;1275;200059;-63
2022/10/06 22:11:55;;;;;;;26.40;20.20;;;;;;;5.32;82.60;100951.10;445944;1275;143847;-62
2022/10/06 22:22:01;;;;;;;27.60;20.80;;;;;;;5.16;82.68;100948.30;446585;1275;143657;-62
2022/10/06 22:32:06;;;;;;;28.70;19.10;;;;;;;5.02;82.53;100948.57;446615;1275;143098;-62
2022/10/06 22:42:12;;;;;;;27.80;21.10;;;;;;;4.89;82.54;100956.27;446739;1273;199686;-62
2022/10/06 22:52:18;;;;;;;26.70;20.60;;;;;;;4.75;82.73;100958.27;445547;1275;142603;-62
2022/10/06 23:02:23;;;;;;;33.10;21.40;;;;;;;4.63;82.71;100959.84;446341;1272;142802;-62
2022/10/06 23:12:29;;;;;;;30.30;19.80;;;;;;;4.52;82.89;100957.97;447077;1273;142955;-62
2022/10/06 23:22:35;;;;;;;34.20;20.40;;;;;;;4.40;83.07;100964.59;447072;1273;143008;-62
2022/10/06 23:32:41;;;;;;;26.60;19.20;;;;;;;4.40;83.35;100964.75;446296;1273;143186;-62
2022/10/06 23:42:46;;;;;;;24.30;18.10;;;;;;;4.27;83.42;100964.09;446999;1273;144470;-62
2022/10/06 23:52:53;;;;;;;23.50;18.20;;;;;;;4.18;83.70;100965.44;440339;1273;143685;-61
